createdAt,value
2022-09-07T00:00:11.061Z,100595.72
2022-09-07T00:03:14.258Z,100595.47
2022-09-07T00:06:21.106Z,100601.75
2022-09-07T00:09:24.054Z,100594.19
2022-09-07T00:12:26.856Z,100590.28
2022-09-07T00:15:29.936Z,100588.03
2022-09-07T00:18:33.631Z,100583.75
2022-09-07T00:21:37.023Z,100579.44
2022-09-07T00:24:39.721Z,100587.31
2022-09-07T00:27:42.771Z,100577.81
2022-09-07T00:30:45.564Z,100579.09
2022-09-07T00:33:50.084Z,100571.25
2022-09-07T00:36:52.744Z,100573.66
2022-09-07T00:39:55.825Z,100572.50
2022-09-07T00:42:58.524Z,100577.62
2022-09-07T00:46:03.759Z,100574.12
2022-09-07T00:49:08.580Z,100582.81
2022-09-07T00:52:13.489Z,100573.41
2022-09-07T00:55:18.055Z,100564.34
2022-09-07T00:58:22.758Z,100555.66
2022-09-07T01:01:26.091Z,100570.22
2022-09-07T01:04:31.122Z,100561.56
2022-09-07T01:07:33.863Z,100565.94
2022-09-07T01:10:37.719Z,100562.47
2022-09-07T01:13:43.317Z,100568.81
2022-09-07T01:17:10.049Z,100546.28
2022-09-07T01:20:30.882Z,100573.91
2022-09-07T01:23:59.663Z,100567.28
2022-09-07T01:27:40.023Z,100570.06
2022-09-07T01:31:10.328Z,100568.94
2022-09-07T01:34:28.531Z,100565.41
2022-09-07T01:37:52.881Z,100566.22
2022-09-07T01:41:04.751Z,100558.38
2022-09-07T01:44:28.332Z,100560.69
2022-09-07T01:47:41.377Z,100557.50
2022-09-07T01:50:52.367Z,100561.12
2022-09-07T01:53:58.743Z,100558.34
2022-09-07T01:57:09.036Z,100545.72
2022-09-07T02:00:18.423Z,100554.50
2022-09-07T02:03:29.772Z,100552.53
2022-09-07T02:06:48.666Z,100556.09
2022-09-07T02:09:57.771Z,100550.19
2022-09-07T02:13:26.835Z,100542.75
2022-09-07T02:16:32.656Z,100543.91
2022-09-07T02:19:42.521Z,100541.53
2022-09-07T02:22:51.257Z,100542.72
2022-09-07T02:26:00.984Z,100520.66
2022-09-07T02:29:04.296Z,100538.81
2022-09-07T02:32:07.086Z,100548.72
2022-09-07T02:35:10.270Z,100535.69
2022-09-07T02:38:12.924Z,100541.22
2022-09-07T02:41:36.217Z,100543.62
2022-09-07T02:44:41.940Z,100545.22
2022-09-07T02:47:50.896Z,100538.91
2022-09-07T02:51:06.290Z,100542.44
2022-09-07T02:54:49.667Z,100532.56
2022-09-07T02:58:16.948Z,100525.81
2022-09-07T03:01:43.775Z,100520.75
2022-09-07T03:05:03.683Z,100512.84
2022-09-07T03:08:15.702Z,100512.91
2022-09-07T03:11:18.988Z,100514.50
2022-09-07T03:14:24.596Z,100499.53
2022-09-07T03:17:27.478Z,100503.50
2022-09-07T03:20:30.537Z,100517.25
2022-09-07T03:23:33.371Z,100511.31
2022-09-07T03:26:43.460Z,100513.72
2022-09-07T03:29:46.587Z,100512.53
2022-09-07T03:32:49.751Z,100511.41
2022-09-07T03:36:01.207Z,100509.81
2022-09-07T03:39:07.357Z,100508.66
2022-09-07T03:42:10.052Z,100506.66
2022-09-07T03:45:13.021Z,100511.41
2022-09-07T03:48:16.004Z,100501.16
2022-09-07T03:51:19.201Z,100505.94
2022-09-07T03:54:22.841Z,100501.97
2022-09-07T03:57:26.018Z,100504.34
2022-09-07T04:00:30.474Z,100501.19
2022-09-07T04:03:33.800Z,100503.94
2022-09-07T04:06:36.544Z,100500.38
2022-09-07T04:09:39.618Z,100511.03
2022-09-07T04:12:42.374Z,100508.28
2022-09-07T04:15:45.610Z,100513.00
2022-09-07T04:18:50.354Z,100508.28
2022-09-07T04:21:53.467Z,100521.66
2022-09-07T04:24:56.130Z,100518.50
2022-09-07T04:27:59.136Z,100521.25
2022-09-07T04:31:02.919Z,100520.06
2022-09-07T04:34:06.964Z,100501.53
2022-09-07T04:37:09.651Z,100521.25
2022-09-07T04:40:12.797Z,100514.87
2022-09-07T04:43:15.556Z,100514.50
2022-09-07T04:46:24.140Z,100520.41
2022-09-07T04:49:26.839Z,100529.09
2022-09-07T04:52:29.875Z,100528.72
2022-09-07T04:55:32.559Z,100533.78
2022-09-07T04:58:36.308Z,100540.47
2022-09-07T05:01:39.128Z,100536.13
2022-09-07T05:04:42.304Z,100542.03
2022-09-07T05:07:45.533Z,100546.00
2022-09-07T05:10:56.833Z,100553.03
2022-09-07T05:14:01.563Z,100549.88
2022-09-07T05:17:04.609Z,100559.28
2022-09-07T05:20:07.626Z,100563.16
2022-09-07T05:23:10.633Z,100563.09
2022-09-07T05:26:13.380Z,100566.94
2022-09-07T05:32:45.496Z,100568.59
2022-09-07T05:36:00.486Z,100568.81
2022-09-07T05:39:04.797Z,100567.47
2022-09-07T05:42:07.868Z,100560.62
2022-09-07T05:45:11.112Z,100566.84
2022-09-07T05:48:14.303Z,100550.50
2022-09-07T05:51:16.996Z,100566.59
2022-09-07T05:54:20.085Z,100573.84
2022-09-07T05:57:22.717Z,100572.81
2022-09-07T06:00:25.728Z,100573.69
2022-09-07T06:03:28.833Z,100577.75
2022-09-07T06:06:31.637Z,100578.69
2022-09-07T06:09:34.795Z,100578.41
2022-09-07T06:12:37.523Z,100576.25
2022-09-07T06:15:40.569Z,100574.81
2022-09-07T06:18:45.596Z,100562.06
2022-09-07T06:21:48.787Z,100574.06
2022-09-07T06:24:51.737Z,100580.63
2022-09-07T06:27:54.883Z,100572.87
2022-09-07T06:31:05.057Z,100570.00
2022-09-07T06:34:08.988Z,100585.56
2022-09-07T06:37:11.681Z,100589.34
2022-09-07T06:40:14.969Z,100568.59
2022-09-07T06:43:17.637Z,100582.94
2022-09-07T06:49:44.217Z,100588.03
2022-09-07T06:56:14.332Z,100595.09
2022-09-07T06:59:17.375Z,100596.00
2022-09-07T07:02:20.516Z,100598.56
2022-09-07T07:05:23.607Z,100597.59
2022-09-07T07:08:26.404Z,100600.16
2022-09-07T07:11:31.019Z,100602.66
2022-09-07T07:14:35.527Z,100607.63
2022-09-07T07:17:39.379Z,100606.91
2022-09-07T07:20:42.439Z,100595.06
2022-09-07T07:23:50.303Z,100615.22
2022-09-07T07:26:53.288Z,100616.53
2022-09-07T07:29:56.323Z,100619.41
2022-09-07T07:32:59.163Z,100621.22
2022-09-07T07:36:09.338Z,100623.37
2022-09-07T07:42:36.299Z,100631.34
2022-09-07T07:48:55.209Z,100611.50
2022-09-07T07:58:47.198Z,100630.59
2022-09-07T08:01:50.994Z,100623.78
2022-09-07T08:04:54.194Z,100623.87
2022-09-07T08:07:56.891Z,100622.31
2022-09-07T08:11:08.428Z,100617.16
2022-09-07T08:14:11.079Z,100618.47
2022-09-07T08:17:16.612Z,100620.63
2022-09-07T08:20:19.353Z,100620.16
2022-09-07T08:23:22.538Z,100615.34
2022-09-07T08:26:25.063Z,100620.78
2022-09-07T08:29:31.259Z,100610.31
2022-09-07T08:32:36.780Z,100608.69
2022-09-07T08:35:40.223Z,100606.84
2022-09-07T08:38:44.063Z,100596.94
2022-09-07T08:41:52.824Z,100600.66
2022-09-07T08:45:03.044Z,100597.59
2022-09-07T08:48:09.541Z,100593.25
2022-09-07T08:51:24.564Z,100574.19
2022-09-07T08:54:29.639Z,100569.13
2022-09-07T08:57:39.212Z,100590.22
2022-09-07T09:00:42.161Z,100588.50
2022-09-07T09:07:28.316Z,100594.94
2022-09-07T09:10:30.980Z,100588.09
2022-09-07T09:13:38.918Z,100592.03
2022-09-07T09:16:50.677Z,100586.47
2022-09-07T09:20:37.410Z,100589.25
2022-09-07T09:23:42.269Z,100582.28
2022-09-07T09:29:58.098Z,100578.84
2022-09-07T09:33:22.831Z,100576.84
2022-09-07T09:36:34.294Z,100576.97
2022-09-07T09:39:38.279Z,100569.31
2022-09-07T09:42:41.018Z,100565.25
2022-09-07T09:49:28.193Z,100560.16
2022-09-07T09:52:44.990Z,100561.16
2022-09-07T09:55:52.902Z,100553.53
2022-09-07T10:06:25.727Z,100547.88
2022-09-07T10:09:39.021Z,100542.37
2022-09-07T10:12:42.640Z,100544.75
2022-09-07T10:15:51.622Z,100538.34
2022-09-07T10:18:56.611Z,100544.34
2022-09-07T10:22:02.374Z,100547.00
2022-09-07T10:25:28.387Z,100539.84
2022-09-07T10:32:17.508Z,100531.28
2022-09-07T10:35:31.463Z,100528.16
2022-09-07T10:38:44.764Z,100529.06
2022-09-07T10:42:07.461Z,100531.44
2022-09-07T10:45:26.795Z,100531.09
2022-09-07T10:48:41.555Z,100526.03
2022-09-07T10:51:53.627Z,100522.16
2022-09-07T10:55:17.370Z,100518.13
2022-09-07T11:02:11.283Z,100515.88
2022-09-07T11:05:34.331Z,100510.94
2022-09-07T11:12:21.325Z,100511.06
2022-09-07T11:15:28.714Z,100517.12
2022-09-07T11:22:32.799Z,100507.09
2022-09-07T11:25:43.312Z,100513.22
2022-09-07T11:32:30.112Z,100503.78
2022-09-07T11:35:41.551Z,100502.91
2022-09-07T11:39:06.349Z,100497.34
2022-09-07T11:42:43.190Z,100490.75
2022-09-07T11:45:57.739Z,100491.63
2022-09-07T11:49:03.393Z,100480.84
2022-09-07T11:52:53.505Z,100488.09
2022-09-07T11:56:00.811Z,100482.19
2022-09-07T11:59:34.851Z,100481.41
2022-09-07T12:03:06.327Z,100485.66
2022-09-07T12:06:28.136Z,100488.03
2022-09-07T12:09:55.748Z,100486.62
2022-09-07T12:13:46.572Z,100490.06
2022-09-07T12:17:00.621Z,100484.00
2022-09-07T12:20:17.218Z,100488.72
2022-09-07T12:23:28.420Z,100466.78
2022-09-07T12:26:34.804Z,100483.78
2022-09-07T12:29:57.221Z,100479.78
2022-09-07T12:33:04.570Z,100476.12
2022-09-07T12:36:28.657Z,100463.44
2022-09-07T12:39:33.100Z,100462.66
2022-09-07T12:42:37.324Z,100452.06
2022-09-07T12:45:40.612Z,100451.66
2022-09-07T12:49:04.638Z,100465.34
2022-09-07T12:52:34.645Z,100458.06
2022-09-07T12:59:24.491Z,100451.88
2022-09-07T13:02:58.229Z,100453.00
2022-09-07T13:06:14.719Z,100444.63
2022-09-07T13:09:31.622Z,100439.81
2022-09-07T13:16:06.396Z,100429.38
2022-09-07T13:19:15.083Z,100430.94
2022-09-07T13:22:32.902Z,100422.19
2022-09-07T13:25:46.045Z,100415.28
2022-09-07T13:28:55.919Z,100419.34
2022-09-07T13:32:12.224Z,100414.00
2022-09-07T13:35:17.552Z,100420.31
2022-09-07T13:38:21.841Z,100409.56
2022-09-07T13:41:31.845Z,100408.84
2022-09-07T13:44:34.892Z,100416.16
2022-09-07T13:47:49.632Z,100405.31
2022-09-07T13:51:16.362Z,100406.87
2022-09-07T13:54:58.516Z,100402.66
2022-09-07T13:58:15.335Z,100399.84
2022-09-07T14:01:22.086Z,100390.81
2022-09-07T14:04:37.803Z,100393.47
2022-09-07T14:07:45.804Z,100393.37
2022-09-07T14:10:49.039Z,100394.62
2022-09-07T14:14:27.130Z,100385.00
2022-09-07T14:17:31.324Z,100383.66
2022-09-07T14:20:40.688Z,100372.31
2022-09-07T14:23:50.407Z,100374.47
2022-09-07T14:26:53.058Z,100385.00
2022-09-07T14:29:55.882Z,100379.63
2022-09-07T14:33:04.752Z,100382.16
2022-09-07T14:36:29.404Z,100381.91
2022-09-07T14:39:34.679Z,100390.19
2022-09-07T14:42:42.149Z,100379.84
2022-09-07T14:45:44.762Z,100380.13
2022-09-07T14:48:50.758Z,100375.69
2022-09-07T14:51:55.111Z,100376.47
2022-09-07T14:54:58.408Z,100378.94
2022-09-07T14:58:13.219Z,100378.84
2022-09-07T15:04:39.010Z,100374.66
2022-09-07T15:07:46.769Z,100380.78
2022-09-07T15:14:20.779Z,100382.44
2022-09-07T15:17:46.671Z,100379.81
2022-09-07T15:20:50.642Z,100378.25
2022-09-07T15:23:55.229Z,100375.87
2022-09-07T15:27:05.221Z,100364.00
2022-09-07T15:30:11.335Z,100367.53
2022-09-07T15:33:14.172Z,100366.41
2022-09-07T15:36:17.284Z,100364.56
2022-09-07T15:39:25.780Z,100366.31
2022-09-07T15:45:51.568Z,100362.81
2022-09-07T15:48:56.017Z,100359.41
2022-09-07T15:52:06.596Z,100364.19
2022-09-07T15:55:09.859Z,100357.12
2022-09-07T15:58:13.056Z,100361.28
2022-09-07T16:04:38.727Z,100352.47
2022-09-07T16:11:18.465Z,100346.44
2022-09-07T16:14:21.517Z,100358.47
2022-09-07T16:17:26.895Z,100359.09
2022-09-07T16:20:33.004Z,100359.78
2022-09-07T16:23:37.179Z,100362.37
2022-09-07T16:26:39.789Z,100361.88
2022-09-07T16:29:43.359Z,100361.59
2022-09-07T16:32:46.106Z,100367.50
2022-09-07T16:36:00.608Z,100359.56
2022-09-07T16:39:03.546Z,100350.03
2022-09-07T16:42:07.219Z,100354.78
2022-09-07T16:48:35.383Z,100351.75
2022-09-07T16:51:39.733Z,100356.78
2022-09-07T16:54:42.751Z,100361.97
2022-09-07T17:01:11.455Z,100363.28
2022-09-07T17:04:14.147Z,100358.44
2022-09-07T17:07:17.371Z,100352.53
2022-09-07T17:10:19.915Z,100350.50
2022-09-07T17:13:22.944Z,100338.94
2022-09-07T17:16:29.628Z,100341.59
2022-09-07T17:19:33.373Z,100344.84
2022-09-07T17:22:36.008Z,100340.28
2022-09-07T17:25:39.121Z,100344.94
2022-09-07T17:28:44.070Z,100344.50
2022-09-07T17:35:09.755Z,100358.38
2022-09-07T17:41:35.651Z,100370.38
2022-09-07T17:44:38.665Z,100368.41
2022-09-07T17:47:41.810Z,100374.28
2022-09-07T17:50:44.796Z,100373.09
2022-09-07T17:53:47.715Z,100376.59
2022-09-07T17:56:50.541Z,100381.78
2022-09-07T18:03:16.588Z,100382.53
2022-09-07T18:06:20.204Z,100394.41
2022-09-07T18:09:23.155Z,100401.53
2022-09-07T18:12:25.871Z,100397.75
2022-09-07T18:15:30.560Z,100407.13
2022-09-07T18:18:33.169Z,100412.25
2022-09-07T18:21:37.970Z,100412.41
2022-09-07T18:24:40.565Z,100421.53
2022-09-07T18:27:44.176Z,100415.09
2022-09-07T18:30:46.817Z,100416.06
2022-09-07T18:33:52.598Z,100417.41
2022-09-07T18:36:55.356Z,100424.31
2022-09-07T18:39:58.330Z,100411.13
2022-09-07T18:43:04.247Z,100417.69
2022-09-07T18:46:12.447Z,100411.41
2022-09-07T18:49:15.526Z,100409.28
2022-09-07T18:55:42.853Z,100413.78
2022-09-07T18:58:46.676Z,100407.97
2022-09-07T19:01:50.185Z,100400.50
2022-09-07T19:08:16.289Z,100415.84
2022-09-07T19:11:23.818Z,100420.94
2022-09-07T19:14:27.683Z,100412.75
2022-09-07T19:17:31.870Z,100412.91
2022-09-07T19:20:35.340Z,100419.03
2022-09-07T19:23:38.594Z,100409.63
2022-09-07T19:26:44.359Z,100393.81
2022-09-07T19:29:47.444Z,100398.84
2022-09-07T19:32:49.977Z,100398.09
2022-09-07T19:35:52.821Z,100393.50
2022-09-07T19:38:56.095Z,100387.75
2022-09-07T19:41:59.753Z,100391.56
2022-09-07T19:45:02.375Z,100380.59
2022-09-07T19:48:06.420Z,100381.56
2022-09-07T19:51:11.584Z,100383.41
2022-09-07T19:54:15.097Z,100375.59
2022-09-07T19:57:17.900Z,100375.69
2022-09-07T20:00:21.160Z,100376.47
2022-09-07T20:03:24.031Z,100368.97
2022-09-07T20:06:27.848Z,100364.62
2022-09-07T20:09:30.773Z,100367.41
2022-09-07T20:12:33.317Z,100364.00
2022-09-07T20:15:40.493Z,100367.59
2022-09-07T20:18:43.864Z,100367.59
2022-09-07T20:21:48.134Z,100353.31
2022-09-07T20:24:50.693Z,100360.81
2022-09-07T20:27:54.052Z,100361.06
2022-09-07T20:30:56.703Z,100365.97
2022-09-07T20:33:59.591Z,100351.94
2022-09-07T20:37:02.251Z,100362.69
2022-09-07T20:40:07.227Z,100356.13
2022-09-07T20:43:09.954Z,100356.72
2022-09-07T20:46:13.032Z,100360.03
2022-09-07T20:49:16.013Z,100356.72
2022-09-07T20:52:18.834Z,100353.16
2022-09-07T20:55:21.366Z,100352.28
2022-09-07T20:58:24.264Z,100349.31
2022-09-07T21:01:28.683Z,100344.78
2022-09-07T21:04:31.537Z,100347.72
2022-09-07T21:07:34.067Z,100343.81
2022-09-07T21:10:41.244Z,100349.81
2022-09-07T21:13:44.477Z,100371.81
2022-09-07T21:16:47.328Z,100367.78
2022-09-07T21:19:49.902Z,100355.72
2022-09-07T21:22:52.734Z,100365.78
2022-09-07T21:25:55.427Z,100365.09
2022-09-07T21:29:00.534Z,100361.16
2022-09-07T21:32:03.376Z,100360.03
2022-09-07T21:35:06.972Z,100356.13
2022-09-07T21:38:09.534Z,100352.66
2022-09-07T21:41:14.876Z,100357.16
2022-09-07T21:44:17.462Z,100364.62
2022-09-07T21:47:20.525Z,100362.72
2022-09-07T21:50:23.140Z,100359.50
2022-09-07T21:53:26.028Z,100362.66
2022-09-07T21:56:29.993Z,100362.28
2022-09-07T21:59:32.882Z,100369.06
2022-09-07T22:02:35.586Z,100358.72
2022-09-07T22:05:38.520Z,100365.16
2022-09-07T22:08:42.180Z,100370.44
2022-09-07T22:11:46.223Z,100375.81
2022-09-07T22:14:48.843Z,100374.62
2022-09-07T22:17:55.043Z,100376.28
2022-09-07T22:21:08.950Z,100376.53
2022-09-07T22:24:15.115Z,100371.06
2022-09-07T22:27:17.763Z,100361.72
2022-09-07T22:30:20.775Z,100370.44
2022-09-07T22:33:23.484Z,100360.19
2022-09-07T22:36:29.556Z,100371.28
2022-09-07T22:39:32.492Z,100374.47
2022-09-07T22:42:35.378Z,100364.16
2022-09-07T22:45:38.009Z,100365.81
2022-09-07T22:48:41.688Z,100369.03
2022-09-07T22:51:44.605Z,100364.31
2022-09-07T22:54:47.451Z,100353.62
2022-09-07T22:57:50.061Z,100355.56
2022-09-07T23:00:52.951Z,100358.13
2022-09-07T23:03:56.489Z,100363.94
2022-09-07T23:06:59.432Z,100358.66
2022-09-07T23:10:01.980Z,100349.44
2022-09-07T23:13:05.290Z,100359.19
2022-09-07T23:16:08.098Z,100355.44
2022-09-07T23:19:13.139Z,100347.94
2022-09-07T23:22:15.783Z,100353.50
2022-09-07T23:25:19.328Z,100364.19
2022-09-07T23:28:22.047Z,100359.16
2022-09-07T23:31:26.229Z,100356.38
2022-09-07T23:34:28.773Z,100348.87
2022-09-07T23:37:31.887Z,100352.44
2022-09-07T23:40:35.752Z,100330.97
2022-09-07T23:43:38.613Z,100342.84
2022-09-07T23:46:41.263Z,100338.44
2022-09-07T23:49:44.085Z,100344.16
2022-09-07T23:52:47.134Z,100335.75
2022-09-07T23:55:51.573Z,100323.50
2022-09-07T23:58:54.519Z,100326.53
